Time;durP1;ratioP1;P1;durP2;ratioP2;P2;SDS_P1;SDS_P2;PMS_P1;PMS_P2;Temp;Humidity;BMP_temperature;BMP_pressure;BME280_temperature;BME280_humidity;BME280_pressure;Samples;Min_cycle;Max_cycle;Signal;HPM_P1;HPM_P2
2023/05/02 00:00:47;;;;;;;35.90;23.88;;;10.20;99.90;;;-144.05;83.83;56876.44;4975497;28;20488;-84
2023/05/02 00:03:13;;;;;;;37.55;24.17;;;10.30;99.90;;;-144.05;83.60;56891.31;4975186;28;20037;-83
2023/05/02 00:05:40;;;;;;;42.15;23.77;;;10.30;99.90;;;-144.05;83.58;56891.31;4974873;28;20034;-85
2023/05/02 00:08:06;;;;;;;31.90;22.05;;;10.30;99.90;;;-144.05;83.68;56891.31;4974674;28;20099;-84
2023/05/02 00:10:32;;;;;;;33.22;22.85;;;10.30;99.90;;;-144.05;83.40;56874.31;4974876;28;20038;-84
2023/05/02 00:12:58;;;;;;;31.20;20.92;;;10.20;99.90;;;-144.05;83.03;56857.34;4991037;28;20030;-83
2023/05/02 00:15:26;;;;;;;33.47;23.08;;;10.20;99.90;;;-144.05;83.02;56876.44;4974710;28;20033;-83
2023/05/02 00:17:52;;;;;;;34.35;23.40;;;10.10;99.90;;;-144.05;83.11;56893.44;4974396;28;20042;-84
2023/05/02 00:20:18;;;;;;;38.50;23.95;;;9.90;99.90;;;-144.05;82.96;56880.69;4990818;28;20402;-84
2023/05/02 00:22:50;;;;;;;35.92;23.08;;;9.80;99.90;;;-144.05;83.09;56891.31;4974400;28;20088;-84
2023/05/02 00:25:16;;;;;;;37.47;23.88;;;9.80;99.90;;;-144.05;83.18;56878.56;4974843;28;20041;-84
2023/05/02 00:27:45;;;;;;;40.55;25.40;;;9.60;99.90;;;-144.05;83.30;56889.19;4974546;28;20034;-84
2023/05/02 00:30:12;;;;;;;39.63;25.35;;;9.60;99.90;;;-144.05;83.30;56887.06;4974575;28;20030;-86
2023/05/02 00:32:39;;;;;;;42.05;25.13;;;9.50;99.90;;;-144.05;83.52;56893.44;4974759;28;20031;-85
2023/05/02 00:35:06;;;;;;;41.95;26.00;;;9.50;99.90;;;-144.05;83.67;56882.81;4974261;28;20054;-84
2023/05/02 00:37:32;;;;;;;39.55;25.40;;;9.50;99.90;;;-144.05;83.93;56876.44;4990572;28;20026;-85
2023/05/02 00:39:58;;;;;;;46.03;28.55;;;9.50;99.90;;;-144.05;84.18;56867.94;4974252;28;20030;-83
2023/05/02 00:42:24;;;;;;;42.80;27.70;;;9.60;99.90;;;-144.05;83.72;56878.56;4974228;28;20434;-84
2023/05/02 00:44:50;;;;;;;42.90;25.88;;;9.70;99.90;;;-144.05;83.84;56908.31;4991863;28;20038;-84
2023/05/02 00:47:19;;;;;;;41.05;25.40;;;9.70;99.90;;;-144.05;84.21;56872.19;4974226;28;20109;-84
2023/05/02 00:49:44;;;;;;;38.83;25.88;;;9.70;99.90;;;-144.05;84.22;56889.19;4974193;28;20117;-84
2023/05/02 00:52:13;;;;;;;43.05;25.58;;;9.80;99.90;;;-144.05;84.39;56861.56;4974309;28;20122;-84
2023/05/02 00:54:39;;;;;;;46.05;27.98;;;9.80;99.90;;;-144.05;84.43;56878.56;4974393;28;20030;-85
2023/05/02 00:57:05;;;;;;;50.67;30.27;;;9.80;99.90;;;-144.05;84.53;56872.19;4974227;28;20037;-83
2023/05/02 00:59:35;;;;;;;51.88;30.85;;;9.90;99.90;;;-144.05;84.61;56874.31;4991570;28;20029;-83
2023/05/02 01:02:28;;;;;;;45.63;29.38;;;9.90;99.90;;;-144.05;84.53;56865.81;4975627;28;20034;-83
2023/05/02 01:05:19;;;;;;;47.78;30.23;;;10.00;99.90;;;-144.05;84.40;56891.31;4995346;28;20526;-84
2023/05/02 01:08:18;;;;;;;54.33;30.80;;;10.10;99.90;;;-144.05;84.64;56874.31;4977814;28;20034;-82
2023/05/02 01:11:14;;;;;;;53.85;33.20;;;10.10;99.90;;;-144.05;84.80;56882.81;4995413;28;20356;-83
2023/05/02 01:13:45;;;;;;;55.50;34.90;;;10.10;99.90;;;-144.05;83.61;56882.81;4996767;28;20109;-83
2023/05/02 01:16:16;;;;;;;49.80;31.85;;;10.20;99.90;;;-144.05;83.54;56863.69;4979667;28;20121;-83
2023/05/02 01:18:44;;;;;;;55.90;33.70;;;10.30;99.90;;;-144.05;83.14;56884.94;4995759;28;20030;-83
2023/05/02 01:21:11;;;;;;;56.53;34.15;;;10.30;99.90;;;-144.05;82.82;56878.56;4979736;28;20026;-83
2023/05/02 01:24:05;;;;;;;54.03;34.10;;;10.30;99.90;;;-144.05;82.51;56870.06;5000361;28;20026;-83
2023/05/02 01:27:20;;;;;;;45.47;29.27;;;10.30;99.90;;;-144.05;82.60;56853.09;4983260;28;20026;-84
2023/05/02 01:29:51;;;;;;;51.25;31.27;;;10.30;99.90;;;-144.05;82.82;56870.06;4995630;28;20034;-83
2023/05/02 01:32:23;;;;;;;52.28;33.58;;;10.40;99.90;;;-144.05;82.45;56872.19;4979127;28;20533;-83
2023/05/02 01:34:56;;;;;;;51.25;32.05;;;10.40;99.90;;;-144.05;82.70;56882.81;4978906;28;20041;-82
2023/05/02 01:37:26;;;;;;;51.75;33.03;;;10.40;99.90;;;-144.05;82.20;56897.69;4978773;28;20056;-86
2023/05/02 01:39:57;;;;;;;53.97;31.48;;;10.30;99.90;;;-144.05;82.51;56878.56;4979317;28;20034;-83
2023/05/02 01:42:26;;;;;;;47.15;30.40;;;10.40;99.90;;;-144.05;82.47;56893.44;4979768;28;20023;-83
2023/05/02 01:44:55;;;;;;;50.22;31.27;;;10.40;99.90;;;-144.05;82.24;56865.81;4979939;28;20033;-84
2023/05/02 01:47:25;;;;;;;52.80;32.40;;;10.40;99.90;;;-144.05;82.27;56906.19;4979816;28;20034;-84
2023/05/02 01:49:51;;;;;;;58.92;33.22;;;10.40;99.90;;;-144.05;82.57;56861.56;4995783;28;20031;-82
2023/05/02 01:52:21;;;;;;;57.92;34.72;;;10.30;99.90;;;-144.05;81.86;56876.44;4978304;28;20447;-83
2023/05/02 01:54:51;;;;;;;55.42;33.20;;;10.40;99.90;;;-144.05;81.37;56901.94;4978330;28;20041;-83
2023/05/02 01:57:18;;;;;;;59.80;34.55;;;10.30;99.90;;;-144.05;81.59;56872.19;4977956;28;20085;-82
2023/05/02 01:59:49;;;;;;;54.03;33.53;;;10.40;99.90;;;-144.05;81.74;56876.44;4977977;28;20113;-83
2023/05/02 02:02:16;;;;;;;58.88;35.45;;;10.40;99.90;;;-144.05;81.52;56863.69;4977827;28;20085;-83
2023/05/02 02:04:47;;;;;;;64.13;35.15;;;10.30;99.90;;;-144.05;81.72;56887.06;4976963;28;20121;-83
2023/05/02 02:07:14;;;;;;;59.00;35.58;;;10.30;99.90;;;-144.05;81.42;56889.19;4976843;28;20026;-83
2023/05/02 02:09:40;;;;;;;63.80;36.25;;;10.50;99.90;;;-144.05;81.46;56870.06;4976744;28;20076;-82
2023/05/02 02:12:35;;;;;;;59.22;37.08;;;10.30;99.90;;;-144.05;81.34;56878.56;4994063;28;20092;-84
2023/05/02 02:15:26;;;;;;;58.85;35.88;;;10.40;99.90;;;-144.05;81.07;56870.06;4993540;28;20041;-83
2023/05/02 02:18:21;;;;;;;57.35;33.78;;;10.40;99.90;;;-144.05;81.38;56872.19;4976610;28;20038;-83
2023/05/02 02:20:52;;;;;;;59.53;36.10;;;10.30;99.90;;;-144.05;81.52;56853.09;4976576;28;20026;-82
2023/05/02 02:23:24;;;;;;;57.78;34.65;;;10.30;99.90;;;-144.05;81.45;56884.94;4976415;28;20034;-83
2023/05/02 02:25:55;;;;;;;63.42;37.10;;;10.30;99.90;;;-144.05;81.78;56889.19;4976319;28;20041;-83
2023/05/02 02:28:21;;;;;;;64.68;36.90;;;10.20;99.90;;;-144.05;81.51;56882.81;4993821;28;20057;-83
2023/05/02 02:30:47;;;;;;;60.83;35.00;;;10.20;99.90;;;-144.05;81.86;56901.94;4976415;28;20056;-83
2023/05/02 02:33:13;;;;;;;59.58;35.25;;;10.20;99.90;;;-144.05;81.44;56889.19;4976221;28;20554;-83
2023/05/02 02:36:06;;;;;;;57.42;33.92;;;10.20;99.90;;;-144.05;81.42;56870.06;4976103;28;20030;-83
2023/05/02 02:38:49;;;;;;;57.45;35.00;;;10.20;99.90;;;-144.05;81.71;56874.31;4992195;28;20387;-83
2023/05/02 02:41:31;;;;;;;66.15;35.63;;;10.20;99.90;;;-144.05;81.52;56876.44;4992415;28;20422;-83
2023/05/02 02:44:23;;;;;;;63.53;35.65;;;10.20;99.90;;;-144.05;81.52;56893.44;4993587;28;20038;-83
2023/05/02 02:47:34;;;;;;;60.95;33.90;;;10.20;99.90;;;-144.05;81.67;56876.44;4993366;28;20026;-83
2023/05/02 02:50:31;;;;;;;59.10;32.50;;;10.10;99.90;;;-144.05;81.74;56874.31;4991944;28;20486;-82
2023/05/02 02:53:31;;;;;;;57.47;32.70;;;10.10;99.90;;;-144.05;81.87;56891.31;4992529;28;20061;-83
2023/05/02 02:56:11;;;;;;;54.88;33.22;;;10.10;99.90;;;-144.05;81.62;56882.81;4976014;28;20125;-83
2023/05/02 02:59:09;;;;;;;55.28;30.98;;;10.10;99.90;;;-144.05;81.87;56878.56;4975825;28;20030;-83
2023/05/02 03:01:45;;;;;;;58.47;30.88;;;10.10;99.90;;;-144.05;81.87;56880.69;4993261;28;20433;-83
2023/05/02 03:04:15;;;;;;;60.25;31.55;;;10.10;99.90;;;-144.05;82.11;56889.19;4994435;28;20084;-83
2023/05/02 03:06:41;;;;;;;56.25;31.48;;;10.10;99.90;;;-144.05;81.96;56878.56;4976276;28;20153;-81
2023/05/02 03:09:18;;;;;;;57.72;29.95;;;10.10;99.90;;;-144.05;81.94;56895.56;4976152;28;20553;-83
2023/05/02 03:11:45;;;;;;;55.25;30.10;;;10.10;99.90;;;-144.05;81.69;56895.56;4976606;28;20035;-83
2023/05/02 03:14:11;;;;;;;56.65;28.60;;;10.10;99.90;;;-144.05;82.16;56884.94;4993679;28;20046;-83
2023/05/02 03:16:40;;;;;;;51.10;28.83;;;10.10;99.90;;;-144.05;81.94;56891.31;4976358;28;20096;-81
2023/05/02 03:19:07;;;;;;;50.75;25.90;;;10.10;99.90;;;-144.05;81.64;56893.44;4975959;28;20109;-83
2023/05/02 03:21:35;;;;;;;49.40;26.33;;;10.10;99.90;;;-144.05;81.75;56874.31;4976163;28;20100;-82
2023/05/02 03:24:04;;;;;;;48.60;24.98;;;10.10;99.90;;;-144.05;81.88;56906.19;4976002;28;20062;-83
2023/05/02 03:26:30;;;;;;;51.88;25.88;;;10.10;99.90;;;-144.05;81.63;56891.31;4976072;28;20026;-87
2023/05/02 03:28:56;;;;;;;57.13;26.65;;;10.10;99.90;;;-144.05;81.46;56880.69;4998843;28;20024;-82
2023/05/02 03:31:22;;;;;;;62.38;28.05;;;10.10;99.90;;;-144.05;81.37;56880.69;4980958;28;20046;-82
2023/05/02 03:33:49;;;;;;;61.50;26.80;;;10.20;99.90;;;-144.05;81.49;56870.06;4993128;28;20038;-84
2023/05/02 03:36:15;;;;;;;58.70;27.20;;;10.10;99.90;;;-144.05;81.99;56882.81;4975366;28;20171;-82
2023/05/02 03:38:41;;;;;;;47.88;24.65;;;10.10;99.90;;;-144.05;81.76;56872.19;4976579;28;20034;-85
2023/05/02 03:41:07;;;;;;;53.90;25.45;;;10.10;99.90;;;-144.05;81.82;56872.19;4995702;28;20026;-86
2023/05/02 03:43:33;;;;;;;50.47;23.58;;;10.00;99.90;;;-144.05;81.75;56914.69;4981472;28;20081;-84
2023/05/02 03:46:08;;;;;;;54.95;24.63;;;10.10;99.90;;;-144.05;81.89;56895.56;4984477;28;20038;-84
2023/05/02 03:48:35;;;;;;;55.83;23.52;;;10.10;99.90;;;-144.05;81.50;56874.31;4988255;28;20018;-81
2023/05/02 03:51:04;;;;;;;46.25;21.50;;;10.10;99.90;;;-144.05;81.63;56863.69;4981936;28;20084;-82
2023/05/02 03:53:31;;;;;;;45.97;22.40;;;10.10;99.90;;;-144.05;81.66;56887.06;4993154;28;20465;-82
2023/05/02 03:55:57;;;;;;;46.88;21.58;;;10.10;99.90;;;-144.05;81.36;56870.06;4975007;28;20037;-81
2023/05/02 03:58:24;;;;;;;40.47;20.58;;;10.10;99.90;;;-144.05;81.61;56910.44;4992880;28;20092;-83
2023/05/02 04:00:52;;;;;;;39.53;20.58;;;10.10;99.90;;;-144.05;80.96;56895.56;4975749;28;20072;-83
2023/05/02 04:03:19;;;;;;;41.03;19.92;;;10.10;99.90;;;-144.05;81.00;56893.44;4975867;28;20040;-82
2023/05/02 04:05:46;;;;;;;40.78;19.33;;;10.10;99.90;;;-144.05;81.08;56865.81;4975824;28;20129;-84
2023/05/02 04:08:12;;;;;;;37.80;18.75;;;10.10;99.90;;;-144.05;81.29;56895.56;4975427;28;20077;-82
2023/05/02 04:10:38;;;;;;;42.17;19.25;;;10.10;99.90;;;-144.05;81.46;56882.81;4991719;28;20066;-83
2023/05/02 04:13:04;;;;;;;30.20;16.35;;;10.10;99.90;;;-144.05;81.37;56887.06;4975252;28;20478;-83
2023/05/02 04:15:31;;;;;;;38.08;18.00;;;10.00;99.90;;;-144.05;81.59;56887.06;4975488;28;20030;-83
2023/05/02 04:17:58;;;;;;;34.42;17.02;;;10.00;99.90;;;-144.05;81.29;56918.94;4992487;28;20149;-82
2023/05/02 04:20:24;;;;;;;33.75;16.77;;;10.10;99.90;;;-144.05;81.35;56906.19;4975653;28;20093;-82
2023/05/02 04:22:50;;;;;;;31.08;17.30;;;10.20;99.90;;;-144.05;81.52;56874.31;4975574;28;20487;-84
2023/05/02 04:25:17;;;;;;;31.48;17.63;;;10.10;99.90;;;-144.05;81.38;56893.44;4993132;28;20475;-84
2023/05/02 04:27:43;;;;;;;29.83;16.63;;;10.00;99.90;;;-144.05;81.42;56876.44;4975108;28;20058;-81
2023/05/02 04:30:10;;;;;;;35.38;17.65;;;10.10;99.90;;;-144.05;81.49;56891.31;4974958;28;20037;-82
2023/05/02 04:32:36;;;;;;;36.70;17.42;;;10.10;99.90;;;-144.05;81.18;56874.31;4975358;28;20475;-83
2023/05/02 04:35:03;;;;;;;39.13;18.58;;;10.10;99.90;;;-144.05;81.24;56882.81;4991203;28;20041;-84
2023/05/02 04:37:29;;;;;;;47.00;18.75;;;10.20;99.90;;;-144.05;81.49;56882.81;4995500;28;20120;-80
2023/05/02 04:39:55;;;;;;;31.83;16.83;;;10.20;99.90;;;-144.05;81.29;56904.06;4979042;28;20034;-83
2023/05/02 04:42:22;;;;;;;33.08;17.08;;;10.20;99.90;;;-144.05;81.64;56893.44;4994812;28;20057;-83
2023/05/02 04:44:49;;;;;;;25.58;14.82;;;10.20;99.90;;;-144.05;81.63;56906.19;4978733;28;20026;-82
2023/05/02 04:47:15;;;;;;;34.20;15.93;;;10.20;99.90;;;-144.05;82.32;56893.44;4978979;28;20034;-82
2023/05/02 04:49:42;;;;;;;27.75;15.73;;;10.20;99.90;;;-144.05;82.49;56889.19;4979162;28;20048;-82
2023/05/02 04:52:09;;;;;;;31.83;16.25;;;10.20;99.90;;;-144.05;82.51;56895.56;4979165;28;20038;-79
2023/05/02 04:54:35;;;;;;;32.25;15.75;;;10.20;99.90;;;-144.05;82.66;56912.56;4979486;28;20030;-83
2023/05/02 04:57:02;;;;;;;33.15;18.48;;;10.20;99.90;;;-144.05;83.15;56901.94;4996519;28;20065;-83
2023/05/02 04:59:31;;;;;;;40.80;19.27;;;10.20;99.90;;;-144.05;83.17;56887.06;4978842;28;20022;-83
2023/05/02 05:01:57;;;;;;;40.63;19.30;;;10.20;99.90;;;-144.05;83.34;56910.44;4979105;28;20033;-83
2023/05/02 05:04:24;;;;;;;49.08;19.33;;;10.20;99.90;;;-144.05;83.40;56874.31;4997597;28;20030;-83
2023/05/02 05:06:50;;;;;;;44.50;20.65;;;10.20;99.90;;;-144.05;83.69;56908.31;4979087;28;20121;-84
2023/05/02 05:09:15;;;;;;;44.67;20.45;;;10.20;99.90;;;-144.05;83.62;56882.81;4978830;28;20105;-83
2023/05/02 05:11:42;;;;;;;51.15;18.65;;;10.10;99.90;;;-144.05;84.02;56895.56;4979562;28;20555;-82
2023/05/02 05:14:08;;;;;;;60.88;21.52;;;10.20;99.90;;;-144.05;83.81;56889.19;4978883;28;20486;-82
2023/05/02 05:16:35;;;;;;;60.83;20.75;;;10.10;99.90;;;-144.05;84.00;56882.81;4978693;28;20034;-80
2023/05/02 05:19:01;;;;;;;59.60;20.27;;;10.20;99.90;;;-144.05;84.13;56901.94;4996061;28;20034;-84
2023/05/02 05:21:27;;;;;;;54.00;21.38;;;10.10;99.90;;;-144.05;84.91;56887.06;4995844;28;20029;-82
2023/05/02 05:23:53;;;;;;;41.45;18.02;;;10.10;99.90;;;-144.05;84.76;56901.94;4978655;28;20053;-82
2023/05/02 05:26:20;;;;;;;41.47;17.73;;;10.10;99.90;;;-144.05;84.72;56897.69;4995994;28;20081;-82
2023/05/02 05:28:46;;;;;;;36.85;17.67;;;10.10;99.90;;;-144.05;84.62;56895.56;4994871;28;20026;-83
2023/05/02 05:31:16;;;;;;;33.05;17.13;;;10.10;99.90;;;-144.05;85.17;56904.06;4983880;28;20036;-83
2023/05/02 05:33:44;;;;;;;31.42;16.00;;;10.10;99.90;;;-144.05;85.67;56889.19;4991938;28;20035;-84
2023/05/02 05:36:13;;;;;;;31.52;16.75;;;10.10;99.90;;;-144.05;85.34;56895.56;4980508;28;20045;-85
2023/05/02 05:38:40;;;;;;;25.02;14.55;;;10.10;99.90;;;-144.05;85.59;56893.44;4996963;28;20046;-85
2023/05/02 05:41:06;;;;;;;31.77;15.68;;;10.10;99.90;;;-144.05;85.78;56897.69;4978752;28;20029;-84
2023/05/02 05:43:36;;;;;;;27.17;14.63;;;10.00;99.90;;;-144.05;86.06;56899.81;4995629;28;20030;-83
2023/05/02 05:46:02;;;;;;;28.90;14.15;;;10.10;99.90;;;-144.05;86.09;56897.69;4978315;28;20390;-83
2023/05/02 05:48:30;;;;;;;27.85;13.43;;;10.10;99.90;;;-144.05;86.04;56910.44;4978253;28;20126;-84
2023/05/02 05:51:08;;;;;;;23.05;12.05;;;10.00;99.90;;;-144.05;85.98;56916.81;4979282;28;20469;-84
2023/05/02 05:53:34;;;;;;;13.75;9.55;;;10.10;99.90;;;-144.05;85.66;56895.56;4978779;28;20034;-85
2023/05/02 05:56:15;;;;;;;17.92;9.63;;;10.00;99.90;;;-144.05;85.57;56870.06;4978158;28;20087;-84
2023/05/02 05:58:42;;;;;;;13.38;7.45;;;10.00;99.90;;;-144.05;85.09;56870.06;4978015;28;20084;-86
2023/05/02 06:01:11;;;;;;;14.77;7.55;;;10.00;99.90;;;-144.05;84.76;56897.69;4995176;28;20120;-85
2023/05/02 06:03:47;;;;;;;12.43;6.70;;;10.00;99.90;;;-144.05;84.01;56865.81;4978640;28;20034;-86
2023/05/02 06:06:13;;;;;;;10.35;6.43;;;9.90;99.90;;;-144.05;83.56;56910.44;4978773;28;20030;-85
2023/05/02 06:08:59;;;;;;;12.35;6.32;;;9.80;99.90;;;-144.05;83.84;56904.06;4978550;28;20045;-84
2023/05/02 06:11:35;;;;;;;13.23;6.40;;;9.90;99.90;;;-144.05;83.20;56874.31;4994877;28;20034;-85
2023/05/02 06:14:01;;;;;;;12.85;6.47;;;9.90;99.90;;;-144.05;83.21;56901.94;4979530;28;20042;-82
2023/05/02 06:16:29;;;;;;;10.38;6.07;;;10.00;99.90;;;-144.05;82.74;56914.69;4978016;28;20030;-86
2023/05/02 06:18:58;;;;;;;11.88;6.70;;;10.00;99.90;;;-144.05;82.84;56887.06;4979152;28;20034;-86
2023/05/02 06:21:29;;;;;;;12.73;6.15;;;10.00;99.90;;;-144.05;82.53;56882.81;4997761;28;20367;-85
2023/05/02 06:24:02;;;;;;;14.75;5.85;;;10.00;99.90;;;-144.05;82.32;56891.31;4979071;28;20023;-82
2023/05/02 06:26:38;;;;;;;11.00;5.57;;;10.10;99.90;;;-144.05;81.94;56891.31;4996196;28;20036;-84
2023/05/02 06:29:13;;;;;;;11.15;5.38;;;10.10;99.90;;;-144.05;82.24;56874.31;4979089;28;20034;-84
2023/05/02 06:31:39;;;;;;;13.70;5.95;;;10.10;99.90;;;-144.05;81.79;56887.06;4979691;28;20053;-82
2023/05/02 06:34:05;;;;;;;10.90;5.43;;;10.10;99.90;;;-144.05;81.29;56887.06;4980497;28;20125;-81
2023/05/02 06:36:33;;;;;;;9.23;5.20;;;10.20;99.90;;;-144.05;80.04;56870.06;4980189;28;20039;-83
2023/05/02 06:39:00;;;;;;;7.35;4.53;;;10.20;99.90;;;-144.05;79.23;56880.69;4996018;28;20026;-81
2023/05/02 06:41:26;;;;;;;9.65;4.40;;;10.30;99.90;;;-144.05;79.37;56891.31;4997453;28;20026;-82
2023/05/02 06:43:52;;;;;;;12.95;8.95;;;10.40;99.90;;;-144.05;79.03;56863.69;4980661;28;20121;-83
2023/05/02 06:46:19;;;;;;;9.10;4.20;;;10.50;99.90;;;-144.05;78.21;56872.19;4996326;28;20034;-84
2023/05/02 06:48:45;;;;;;;10.98;4.53;;;10.50;99.90;;;-144.05;76.77;56882.81;4995092;28;20117;-84
2023/05/02 06:51:14;;;;;;;8.80;3.83;;;10.60;99.90;;;-144.05;76.29;56878.56;4978722;28;20108;-81
2023/05/02 06:53:40;;;;;;;12.15;4.07;;;10.70;99.90;;;-144.05;75.56;56893.44;4995107;28;20126;-80
2023/05/02 06:56:06;;;;;;;12.35;4.32;;;10.70;99.90;;;-144.05;74.79;56884.94;4994989;28;20085;-82
2023/05/02 06:58:32;;;;;;;13.10;5.28;;;10.60;99.90;;;-144.05;74.71;56872.19;4979543;28;20022;-84
2023/05/02 07:00:58;;;;;;;8.55;3.80;;;10.60;99.90;;;-144.05;74.45;56887.06;4978776;28;20093;-81
2023/05/02 07:03:26;;;;;;;8.55;3.90;;;10.70;99.90;;;-144.05;74.93;56887.06;4979334;28;20062;-82
2023/05/02 07:05:54;;;;;;;8.13;3.92;;;10.80;99.90;;;-144.05;74.07;56891.31;4978171;28;20485;-82
2023/05/02 07:08:22;;;;;;;16.50;3.85;;;10.80;99.90;;;-144.05;73.64;56878.56;4978691;28;20269;-82
2023/05/02 07:10:49;;;;;;;9.50;3.58;;;10.80;99.90;;;-144.05;73.89;56908.31;4979636;28;20037;-83
2023/05/02 07:13:15;;;;;;;9.32;3.78;;;10.80;99.90;;;-144.05;74.11;56897.69;4996058;28;20034;-82
2023/05/02 07:15:42;;;;;;;9.25;3.97;;;10.80;99.90;;;-144.05;74.33;56863.69;4996509;28;20100;-81
2023/05/02 07:18:08;;;;;;;6.70;3.67;;;10.90;99.90;;;-144.05;73.54;56870.06;4993868;28;20026;-81
2023/05/02 07:20:41;;;;;;;16.80;4.80;;;10.80;99.90;;;-144.05;73.63;56895.56;4975807;28;20069;-82
2023/05/02 07:23:08;;;;;;;7.20;2.97;;;10.70;99.90;;;-144.05;73.75;56904.06;4975625;28;20050;-81
2023/05/02 07:25:35;;;;;;;7.00;2.97;;;10.60;99.90;;;-144.05;73.70;56893.44;4991833;28;20375;-81
2023/05/02 07:28:01;;;;;;;6.97;3.40;;;10.70;99.90;;;-144.05;73.88;56895.56;4977962;28;20521;-80
2023/05/02 07:30:27;;;;;;;10.05;6.50;;;10.60;99.90;;;-144.05;74.24;56908.31;5016382;28;20030;-79
2023/05/02 07:32:53;;;;;;;6.38;3.55;;;10.60;99.90;;;-144.05;74.41;56891.31;4978062;28;20026;-81
2023/05/02 07:35:19;;;;;;;5.63;3.70;;;10.60;99.90;;;-144.05;74.17;56884.94;4975769;28;20031;-82
2023/05/02 07:37:47;;;;;;;8.30;4.40;;;10.50;99.90;;;-144.05;75.14;56876.44;4975535;28;20088;-79
2023/05/02 07:40:13;;;;;;;12.10;4.60;;;10.40;99.90;;;-144.05;74.24;56893.44;4991533;28;20037;-82
2023/05/02 07:42:43;;;;;;;8.10;3.63;;;10.40;99.90;;;-144.05;74.29;56897.69;4993006;28;20168;-81
2023/05/02 07:45:09;;;;;;;8.88;4.30;;;10.30;99.90;;;-144.05;75.28;56895.56;4975106;28;20049;-79
2023/05/02 07:47:38;;;;;;;8.48;4.30;;;10.30;99.90;;;-144.05;75.87;56878.56;4974933;28;20067;-80
2023/05/02 07:50:05;;;;;;;9.50;4.55;;;10.20;99.90;;;-144.05;76.42;56901.94;4975038;28;20429;-83
2023/05/02 07:52:33;;;;;;;5.20;2.45;;;10.10;99.90;;;-144.05;76.66;56895.56;4974815;28;20042;-82
2023/05/02 07:54:59;;;;;;;4.63;2.45;;;9.90;99.90;;;-144.05;77.11;56912.56;4975280;28;20403;-82
2023/05/02 07:57:26;;;;;;;3.88;2.38;;;9.70;99.90;;;-144.05;77.54;56908.31;4974920;28;20066;-83
2023/05/02 07:59:51;;;;;;;2.67;2.10;;;9.50;99.90;;;-144.05;78.69;56910.44;4991111;28;20030;-82
2023/05/02 08:02:22;;;;;;;3.42;2.20;;;9.30;99.90;;;-144.05;78.99;56901.94;4975129;28;20030;-82
2023/05/02 08:04:48;;;;;;;4.32;2.45;;;9.10;99.90;;;-144.05;79.90;56910.44;4974809;28;20398;-83
2023/05/02 08:07:15;;;;;;;4.60;2.03;;;9.00;99.90;;;-144.05;80.25;56908.31;4974814;28;20084;-84
2023/05/02 08:09:41;;;;;;;3.03;2.03;;;8.90;99.90;;;-144.05;80.24;56921.06;4974877;28;20038;-82
2023/05/02 08:12:07;;;;;;;3.72;2.40;;;8.80;99.90;;;-144.05;80.52;56891.31;4993152;28;20037;-84
2023/05/02 08:14:33;;;;;;;5.20;2.92;;;8.80;99.90;;;-144.05;80.34;56897.69;4978833;28;20502;-82
2023/05/02 08:17:00;;;;;;;7.15;4.80;;;8.70;99.90;;;-144.05;80.97;56901.94;4996175;28;20491;-83
2023/05/02 08:19:26;;;;;;;8.43;5.82;;;8.70;99.90;;;-144.05;80.96;56912.56;4997046;28;20112;-83
2023/05/02 08:21:55;;;;;;;4.07;2.33;;;8.80;99.90;;;-144.05;80.46;56914.69;4979807;28;20026;-82
2023/05/02 08:24:21;;;;;;;3.30;2.45;;;8.70;99.90;;;-144.05;80.75;56906.19;4996777;28;20065;-82
2023/05/02 08:26:47;;;;;;;7.28;3.70;;;8.70;99.90;;;-144.05;81.25;56938.03;4978679;28;20450;-83
2023/05/02 08:29:13;;;;;;;6.15;3.40;;;8.80;99.90;;;-144.05;80.72;56906.19;4994851;28;20062;-81
2023/05/02 08:31:40;;;;;;;6.57;3.10;;;8.80;99.90;;;-144.05;80.19;56901.94;4995840;28;20038;-83
2023/05/02 08:34:06;;;;;;;8.68;3.22;;;8.80;99.90;;;-144.05;79.40;56921.06;4994592;28;20038;-81
2023/05/02 08:36:32;;;;;;;5.82;2.67;;;8.60;99.90;;;-144.05;78.89;56889.19;4978248;28;20042;-83
2023/05/02 08:38:58;;;;;;;10.10;3.25;;;8.70;99.90;;;-144.05;78.50;56908.31;4995881;28;20444;-82
2023/05/02 08:41:27;;;;;;;6.75;3.42;;;8.80;99.90;;;-144.05;78.38;56893.44;4978133;28;20033;-84
2023/05/02 08:43:55;;;;;;;11.00;4.78;;;8.70;99.90;;;-144.05;78.42;56910.44;4978089;28;20029;-83
2023/05/02 08:46:24;;;;;;;9.63;4.45;;;8.70;99.90;;;-144.05;78.08;56893.44;4978282;28;20406;-82
2023/05/02 08:48:52;;;;;;;9.52;4.47;;;8.80;99.90;;;-144.05;78.02;56897.69;4978402;28;20486;-83
2023/05/02 08:51:20;;;;;;;10.07;4.32;;;8.80;99.90;;;-144.05;77.16;56882.81;4978811;28;20295;-83
2023/05/02 08:53:46;;;;;;;14.50;5.68;;;8.80;99.90;;;-144.05;76.45;56906.19;4994906;28;20085;-81
2023/05/02 08:56:12;;;;;;;12.82;4.78;;;9.00;99.90;;;-144.05;76.59;56899.81;4978694;28;20500;-81
2023/05/02 08:58:40;;;;;;;11.88;5.13;;;9.00;99.90;;;-144.05;75.73;56904.06;4994384;28;20461;-81
2023/05/02 09:01:15;;;;;;;12.75;4.93;;;9.20;99.90;;;-144.05;74.75;56872.19;4977996;28;20081;-83
2023/05/02 09:03:45;;;;;;;14.35;5.18;;;9.30;99.90;;;-144.05;74.21;56906.19;4994073;28;20030;-82
2023/05/02 09:06:19;;;;;;;13.98;5.00;;;9.30;99.90;;;-144.05;73.06;56927.41;4978191;28;20132;-81
2023/05/02 09:08:49;;;;;;;11.18;4.88;;;9.40;99.90;;;-144.05;72.62;56904.06;4994043;28;20038;-80
2023/05/02 09:11:16;;;;;;;8.00;3.70;;;9.40;99.90;;;-144.05;72.51;56891.31;4977901;28;20034;-82
2023/05/02 09:13:51;;;;;;;11.07;4.80;;;9.30;99.90;;;-144.05;71.60;56918.94;4978743;28;20445;-83
2023/05/02 09:16:25;;;;;;;10.07;3.88;;;9.30;99.90;;;-144.05;72.34;56904.06;4978587;28;20551;-85
2023/05/02 09:18:57;;;;;;;11.90;4.45;;;9.10;99.90;;;-144.05;72.09;56918.94;4996343;28;20041;-83
2023/05/02 09:21:38;;;;;;;12.98;4.25;;;9.00;99.90;;;-144.05;72.86;56914.69;4995366;28;20053;-85
2023/05/02 09:24:20;;;;;;;15.15;5.10;;;9.00;99.90;;;-144.05;72.21;56901.94;4978963;28;20027;-85
2023/05/02 09:27:04;;;;;;;12.43;4.70;;;9.00;99.90;;;-144.05;72.98;56891.31;5014634;28;20038;-83
2023/05/02 09:29:34;;;;;;;22.02;5.97;;;8.90;99.90;;;-144.05;73.28;56916.81;4983699;28;20182;-84
2023/05/02 09:32:05;;;;;;;15.80;5.63;;;8.90;99.90;;;-144.05;74.04;56925.28;4997396;28;20030;-82
2023/05/02 09:34:32;;;;;;;13.10;5.57;;;8.90;99.90;;;-144.05;73.25;56895.56;4996987;28;20030;-85
2023/05/02 09:36:58;;;;;;;13.82;5.68;;;8.90;99.90;;;-144.05;73.70;56940.16;4980234;28;20173;-86
2023/05/02 09:39:28;;;;;;;15.18;4.95;;;8.90;99.90;;;-144.05;73.71;56912.56;4980586;28;20053;-85
2023/05/02 09:41:55;;;;;;;12.32;4.85;;;8.80;99.90;;;-144.05;73.64;56910.44;4979192;28;20026;-86
2023/05/02 09:44:36;;;;;;;15.07;8.68;;;8.90;99.90;;;-144.05;73.04;56921.06;4996374;28;20038;-83
2023/05/02 09:47:02;;;;;;;7.97;4.25;;;9.00;99.90;;;-144.05;72.85;56918.94;4997028;28;20049;-81
2023/05/02 09:49:45;;;;;;;11.50;4.78;;;9.30;99.90;;;-144.05;70.33;56884.94;4997129;28;20148;-81
2023/05/02 09:52:21;;;;;;;13.85;4.50;;;9.50;99.90;;;-144.05;69.09;56897.69;4980928;28;20035;-82
2023/05/02 09:54:49;;;;;;;13.32;4.75;;;9.60;99.90;;;-144.05;68.28;56884.94;4978575;28;20031;-82
2023/05/02 09:57:15;;;;;;;11.13;4.07;;;9.70;99.90;;;-144.05;67.69;56887.06;4997783;28;20121;-82
2023/05/02 09:59:56;;;;;;;10.23;3.92;;;9.70;99.90;;;-144.05;66.83;56887.06;4979079;28;20050;-83
2023/05/02 10:02:24;;;;;;;11.63;3.90;;;9.70;99.90;;;-144.05;66.31;56895.56;4996490;28;20523;-82
2023/05/02 10:04:55;;;;;;;10.52;3.97;;;9.60;99.90;;;-144.05;66.82;56914.69;4978522;28;20446;-83
2023/05/02 10:07:22;;;;;;;9.23;4.78;;;9.50;99.90;;;-144.05;68.33;56889.19;4980651;28;20041;-84
2023/05/02 10:09:54;;;;;;;13.35;5.75;;;9.50;99.90;;;-144.05;68.85;56906.19;4997093;28;20053;-83
2023/05/02 10:12:27;;;;;;;8.45;4.78;;;9.60;99.90;;;-144.05;68.37;56897.69;4996779;28;20362;-83